Correctionville, Iowa
Current Conditions -  °F | °C
As of 11:35 PM on Wednesday 17 Dec 2014 (Local Time) from KCKP Reporting Station
Overcast Overcast  
Wind Chill: 21°   Ceiling: 7500
Heat Index: 21°   Visibility: 10mi
Dew Point: 19°   Wind: 0mph
Humidity: 92%   Direction: NA
Pressure: 30.28"   Gusts: NA
Location:  42.47°N, 95.79°W
Report Text: KCKP 180535Z AUTO 00000KT 10SM OVC075 M06/M07 A3028 RMK AO2 T10621073
Loading
Personal Weather Stations






























Interactive Weather Map New forecast layout! Learn more

10-Day Weather Forecast

Advertisements
Track Severe Weather on mobile